Time;durP1;ratioP1;P1;durP2;ratioP2;P2;SDS_P1;SDS_P2;PMS_P1;PMS_P2;Temp;Humidity;BMP_temperature;BMP_pressure;BME280_temperature;BME280_humidity;BME280_pressure;Samples;Min_cycle;Max_cycle;Signal;HPM_P1;HPM_P2
2023/10/09 00:02:09;;;;;;;9.23;3.30;;;14.70;99.90;;;;;;5106034;27;20040;-88
2023/10/09 00:04:41;;;;;;;9.27;3.60;;;14.60;99.90;;;;;;5104889;27;20462;-88
2023/10/09 00:07:08;;;;;;;13.57;8.50;;;14.60;99.90;;;;;;5106276;27;20459;-88
2023/10/09 00:09:46;;;;;;;16.85;9.00;;;14.60;99.90;;;;;;5087509;27;20118;-88
2023/10/09 00:12:16;;;;;;;11.52;3.83;;;14.60;99.90;;;;;;5089023;27;20039;-88
2023/10/09 00:14:47;;;;;;;13.93;8.30;;;14.50;99.90;;;;;;5087725;27;20039;-88
2023/10/09 00:19:42;;;;;;;13.63;8.25;;;14.60;99.90;;;;;;5104927;27;20407;-88
2023/10/09 00:22:11;;;;;;;12.00;3.60;;;14.60;99.90;;;;;;5087405;27;20042;-88
2023/10/09 00:24:44;;;;;;;10.40;3.47;;;14.50;99.90;;;;;;5087777;28;20043;-88
2023/10/09 00:27:19;;;;;;;12.93;3.92;;;14.40;99.90;;;;;;5081170;27;20088;-88
2023/10/09 00:29:45;;;;;;;13.80;7.90;;;14.40;99.90;;;;;;5086968;27;20713;-88
2023/10/09 00:32:32;;;;;;;12.10;3.80;;;14.40;99.90;;;;;;5105662;27;20035;-88
2023/10/09 00:34:59;;;;;;;12.73;4.40;;;14.40;99.90;;;;;;5085158;27;20504;-88
2023/10/09 00:37:26;;;;;;;18.30;10.05;;;14.40;99.90;;;;;;5120283;27;20518;-88
2023/10/09 00:39:58;;;;;;;16.40;10.20;;;14.40;99.90;;;;;;5100242;28;20074;-88
2023/10/09 00:42:30;;;;;;;20.00;10.95;;;14.40;99.90;;;;;;5102002;27;20485;-87
2023/10/09 00:45:05;;;;;;;13.10;4.00;;;14.50;99.90;;;;;;5086234;27;20039;-88
2023/10/09 00:47:34;;;;;;;12.27;4.57;;;14.40;99.90;;;;;;5104130;27;20046;-88
2023/10/09 00:50:21;;;;;;;13.23;5.85;;;14.30;99.90;;;;;;5085255;28;20036;-88
2023/10/09 00:53:09;;;;;;;16.45;5.05;;;14.30;99.90;;;;;;5103033;28;20093;-88
2023/10/09 00:58:12;;;;;;;21.25;12.90;;;14.20;99.90;;;;;;5087240;28;20601;-87
2023/10/09 01:05:52;;;;;;;16.70;6.40;;;14.30;99.90;;;;;;5095593;28;20047;-87
2023/10/09 01:11:09;;;;;;;20.02;12.63;;;14.30;99.90;;;;;;5094241;28;20051;-88
2023/10/09 01:13:41;;;;;;;18.95;13.10;;;14.30;99.90;;;;;;5078176;28;20040;-88
2023/10/09 01:16:13;;;;;;;18.27;6.40;;;14.30;99.90;;;;;;5095126;28;20047;-88
2023/10/09 01:18:43;;;;;;;22.88;13.55;;;14.20;99.90;;;;;;5077597;28;20045;-88
2023/10/09 01:21:13;;;;;;;17.08;7.05;;;14.20;99.90;;;;;;5094352;28;20040;-89
2023/10/09 01:23:59;;;;;;;16.42;7.00;;;14.10;99.90;;;;;;5077273;28;20043;-88
2023/10/09 01:26:25;;;;;;;12.80;6.60;;;14.10;99.90;;;;;;5078414;28;20036;-88
2023/10/09 01:28:51;;;;;;;16.23;5.75;;;14.10;99.90;;;;;;5094548;28;20040;-88
2023/10/09 01:31:17;;;;;;;16.23;6.55;;;14.00;99.90;;;;;;5085565;28;20043;-89
2023/10/09 01:33:44;;;;;;;14.57;6.47;;;14.00;99.90;;;;;;5095897;28;20071;-88
2023/10/09 01:36:14;;;;;;;18.85;8.00;;;14.00;99.90;;;;;;5104573;28;20065;-88
2023/10/09 01:38:40;;;;;;;22.88;15.73;;;14.00;99.90;;;;;;5089604;28;20036;-88
2023/10/09 01:41:16;;;;;;;21.13;14.60;;;14.10;99.90;;;;;;5095169;28;20413;-88
2023/10/09 01:43:44;;;;;;;22.27;15.60;;;14.10;99.90;;;;;;5094800;28;20054;-88
2023/10/09 01:46:17;;;;;;;22.33;15.38;;;14.10;99.90;;;;;;5094487;28;20051;-88
2023/10/09 01:48:46;;;;;;;18.40;7.63;;;14.10;99.90;;;;;;5091306;28;20020;-87
2023/10/09 01:51:18;;;;;;;16.48;6.70;;;14.10;99.90;;;;;;5084234;28;20518;-88
2023/10/09 01:53:54;;;;;;;22.77;15.85;;;14.00;99.90;;;;;;5079834;28;20035;-88
2023/10/09 01:56:19;;;;;;;25.38;16.17;;;14.10;99.90;;;;;;5079545;28;20042;-88
2023/10/09 01:58:47;;;;;;;22.17;16.38;;;14.10;99.90;;;;;;5094758;28;20126;-88
2023/10/09 02:01:14;;;;;;;24.35;17.58;;;14.10;99.90;;;;;;5094889;28;20521;-88
2023/10/09 02:03:42;;;;;;;25.38;17.42;;;14.20;99.90;;;;;;5099290;28;20620;-88
2023/10/09 02:06:25;;;;;;;13.82;6.07;;;14.20;99.90;;;;;;5085729;28;20039;-88
2023/10/09 02:08:56;;;;;;;13.77;5.60;;;14.10;99.90;;;;;;5083238;28;20088;-88
2023/10/09 02:11:41;;;;;;;27.70;19.10;;;14.10;99.90;;;;;;5093537;28;20043;-88
2023/10/09 02:14:19;;;;;;;18.02;7.70;;;14.10;99.90;;;;;;5093682;28;20039;-88
2023/10/09 02:19:36;;;;;;;20.05;8.48;;;14.10;99.90;;;;;;5102197;28;20518;-88
2023/10/09 02:22:12;;;;;;;27.35;19.60;;;14.00;99.90;;;;;;5076688;28;20053;-88
2023/10/09 02:24:49;;;;;;;20.42;8.07;;;14.10;99.90;;;;;;5076777;28;20040;-88
2023/10/09 02:30:15;;;;;;;18.65;8.27;;;14.00;99.90;;;;;;5093248;28;20083;-88
2023/10/09 02:32:48;;;;;;;20.15;8.70;;;14.00;99.90;;;;;;5093066;28;20495;-88
2023/10/09 02:35:38;;;;;;;;;;;14.00;99.90;;;;;;5086139;28;20401;-87
2023/10/09 02:38:10;;;;;;;18.70;9.40;;;14.00;99.90;;;;;;5076885;28;19922;-88
2023/10/09 02:41:00;;;;;;;21.70;9.52;;;14.00;99.90;;;;;;5102118;28;20043;-88
2023/10/09 02:43:27;;;;;;;32.08;23.75;;;14.00;99.90;;;;;;5076963;28;20046;-88
2023/10/09 02:45:52;;;;;;;23.10;11.07;;;14.10;99.90;;;;;;5077038;28;20082;-88
2023/10/09 02:48:25;;;;;;;20.15;10.10;;;14.10;99.90;;;;;;5076467;28;20075;-88
2023/10/09 02:50:51;;;;;;;21.13;8.98;;;14.00;99.90;;;;;;5092670;28;20051;-88
2023/10/09 02:53:28;;;;;;;32.47;24.15;;;14.00;99.90;;;;;;5092805;28;20074;-87
2023/10/09 02:56:12;;;;;;;21.15;9.48;;;14.10;99.90;;;;;;5094036;28;20043;-88
2023/10/09 02:58:40;;;;;;;27.27;10.63;;;14.10;99.90;;;;;;5076001;28;20031;-88
2023/10/09 03:01:15;;;;;;;34.55;26.27;;;14.00;99.90;;;;;;5092373;28;20043;-88
2023/10/09 03:03:46;;;;;;;35.63;26.92;;;14.10;99.90;;;;;;5075486;28;20151;-88
2023/10/09 03:06:13;;;;;;;25.48;11.27;;;14.20;99.90;;;;;;5102026;28;20043;-89
2023/10/09 03:08:42;;;;;;;36.33;26.08;;;14.10;99.90;;;;;;5101876;28;20075;-89
2023/10/09 03:11:13;;;;;;;30.48;11.65;;;14.20;99.90;;;;;;5096154;28;20096;-87
2023/10/09 03:13:47;;;;;;;21.95;10.30;;;14.20;99.90;;;;;;5080045;28;20039;-88
2023/10/09 03:16:18;;;;;;;41.40;28.88;;;14.20;99.90;;;;;;5096869;28;20032;-87
2023/10/09 03:18:53;;;;;;;39.33;29.83;;;14.20;99.90;;;;;;5097739;28;20088;-88
2023/10/09 03:21:19;;;;;;;27.38;11.95;;;14.30;99.90;;;;;;5097473;28;20051;-88
2023/10/09 03:23:51;;;;;;;40.67;29.73;;;14.20;99.90;;;;;;5097425;28;20043;-88
2023/10/09 03:26:18;;;;;;;42.83;30.70;;;14.30;99.90;;;;;;5080428;28;20184;-88
2023/10/09 03:28:49;;;;;;;43.85;31.75;;;14.30;99.90;;;;;;5079953;28;20040;-88
2023/10/09 03:31:15;;;;;;;28.13;11.32;;;14.40;99.90;;;;;;5096835;28;20040;-88
2023/10/09 03:33:41;;;;;;;41.30;31.10;;;14.30;99.90;;;;;;5096827;28;20122;-88
2023/10/09 03:36:09;;;;;;;22.52;11.23;;;14.40;99.90;;;;;;5097079;28;20024;-88
2023/10/09 03:38:38;;;;;;;27.50;12.18;;;14.30;99.90;;;;;;5097135;28;20052;-88
2023/10/09 03:41:09;;;;;;;26.80;10.73;;;14.30;99.90;;;;;;5096481;28;20085;-88
2023/10/09 03:43:40;;;;;;;45.13;32.53;;;14.30;99.90;;;;;;5080495;28;20051;-89
2023/10/09 03:46:20;;;;;;;45.10;31.30;;;14.30;99.90;;;;;;5080361;28;20036;-89
2023/10/09 03:48:47;;;;;;;43.70;32.65;;;14.40;99.90;;;;;;5085560;28;20080;-89
2023/10/09 03:51:20;;;;;;;47.25;33.67;;;14.40;99.90;;;;;;5080190;28;20126;-88
2023/10/09 03:53:47;;;;;;;29.10;12.95;;;14.50;99.90;;;;;;5098456;28;20119;-88
2023/10/09 03:56:13;;;;;;;26.73;11.70;;;14.40;99.90;;;;;;5111262;28;20061;-88
2023/10/09 03:59:00;;;;;;;27.98;13.05;;;14.40;99.90;;;;;;5084994;28;20039;-89
2023/10/09 04:01:29;;;;;;;32.30;15.00;;;14.40;99.90;;;;;;5096880;28;20078;-89
2023/10/09 04:03:59;;;;;;;47.95;33.90;;;14.40;99.90;;;;;;5079817;28;20043;-88
2023/10/09 04:06:30;;;;;;;30.05;14.80;;;14.50;99.90;;;;;;5079919;28;20124;-88
2023/10/09 04:08:58;;;;;;;32.55;15.55;;;14.50;99.90;;;;;;5079247;28;20051;-88
2023/10/09 04:11:24;;;;;;;34.83;17.23;;;14.50;99.90;;;;;;5095990;28;20529;-88
2023/10/09 04:13:52;;;;;;;47.60;34.50;;;14.50;99.90;;;;;;5096389;28;20042;-89
2023/10/09 04:18:57;;;;;;;19.98;11.02;;;14.60;99.90;;;;;;5095701;28;20510;-88
2023/10/09 04:21:36;;;;;;;46.85;33.90;;;14.50;99.90;;;;;;5095152;28;20043;-88
2023/10/09 04:24:22;;;;;;;47.67;34.10;;;14.60;99.90;;;;;;5095618;28;20059;-88
2023/10/09 04:26:53;;;;;;;45.63;34.08;;;14.70;99.90;;;;;;5079026;28;20097;-88
2023/10/09 04:29:28;;;;;;;47.67;33.22;;;14.70;99.90;;;;;;5079123;28;20043;-88
2023/10/09 04:31:56;;;;;;;49.58;34.67;;;14.80;99.90;;;;;;5077937;28;20062;-88
2023/10/09 04:36:58;;;;;;;29.65;14.10;;;14.80;99.90;;;;;;5096005;28;20054;-88
2023/10/09 04:47:39;;;;;;;46.78;36.30;;;14.80;99.90;;;;;;5095167;28;20051;-88
2023/10/09 04:57:45;;;;;;;49.85;36.05;;;14.90;99.90;;;;;;5094878;28;20499;-89
2023/10/09 05:02:56;;;;;;;33.22;14.52;;;15.00;99.90;;;;;;5095413;28;20050;-88
2023/10/09 05:16:26;;;;;;;31.83;14.02;;;15.10;99.90;;;;;;5095134;28;20423;-88
2023/10/09 05:18:59;;;;;;;33.60;16.30;;;15.10;99.90;;;;;;5077966;28;20043;-87
2023/10/09 05:34:36;;;;;;;48.70;36.85;;;15.20;99.90;;;;;;5094860;28;20043;-88
2023/10/09 05:37:24;;;;;;;33.58;17.95;;;15.30;99.90;;;;;;5077710;28;20040;-88
2023/10/09 05:47:53;;;;;;;50.92;36.67;;;15.30;99.90;;;;;;5094850;28;20051;-88
2023/10/09 06:08:47;;;;;;;43.78;34.58;;;15.60;99.90;;;;;;5103377;28;20051;-89
2023/10/09 06:11:49;;;;;;;48.72;34.53;;;15.60;99.90;;;;;;5095059;28;20391;-89
2023/10/09 06:19:12;;;;;;;23.00;11.32;;;15.70;99.90;;;;;;5094431;28;20469;-89
2023/10/09 06:24:33;;;;;;;41.03;31.70;;;15.70;99.90;;;;;;5097630;27;20043;-89
2023/10/09 06:29:35;;;;;;;43.20;30.90;;;15.90;99.90;;;;;;5094239;28;20101;-89
2023/10/09 06:35:14;;;;;;;39.78;29.20;;;15.90;99.90;;;;;;5092722;28;20043;-89
2023/10/09 06:38:21;;;;;;;25.75;11.10;;;16.00;99.90;;;;;;5076237;28;20616;-88
2023/10/09 06:43:53;;;;;;;37.35;26.60;;;16.00;99.90;;;;;;5093050;28;20047;-89
2023/10/09 06:45:55;;;;;;;24.50;11.93;;;16.00;99.90;;;;;;5074010;28;20418;-89
2023/10/09 06:56:26;;;;;;;34.85;22.38;;;16.20;99.90;;;;;;5102350;28;20495;-89
2023/10/09 06:58:57;;;;;;;22.10;10.98;;;16.20;99.90;;;;;;5076685;28;20073;-89
2023/10/09 07:06:51;;;;;;;30.42;21.88;;;16.20;99.90;;;;;;5098726;28;20044;-89
2023/10/09 07:09:20;;;;;;;31.05;21.65;;;16.30;99.90;;;;;;5075462;28;20124;-89
2023/10/09 07:16:59;;;;;;;26.75;18.90;;;16.40;99.90;;;;;;5101040;28;20055;-89
2023/10/09 07:22:04;;;;;;;22.73;18.23;;;16.40;99.90;;;;;;5093227;28;20047;-89
2023/10/09 07:24:43;;;;;;;27.75;19.50;;;16.50;99.90;;;;;;5076607;28;20505;-88
2023/10/09 07:27:10;;;;;;;22.67;7.97;;;16.50;99.90;;;;;;5076808;28;20057;-88
2023/10/09 07:29:48;;;;;;;18.65;9.27;;;16.50;99.90;;;;;;5076400;28;20140;-89
2023/10/09 07:32:20;;;;;;;27.17;17.40;;;16.50;99.90;;;;;;5094564;28;20033;-89
2023/10/09 07:34:52;;;;;;;28.30;16.83;;;16.60;99.90;;;;;;5076526;28;20039;-89
2023/10/09 07:37:30;;;;;;;25.60;17.60;;;16.60;99.90;;;;;;5076398;28;20028;-89
2023/10/09 07:39:57;;;;;;;21.77;16.20;;;16.70;99.90;;;;;;5093358;28;20050;-89
2023/10/09 07:42:33;;;;;;;22.85;15.27;;;16.70;99.90;;;;;;5076629;28;20406;-89
2023/10/09 07:45:11;;;;;;;23.85;15.65;;;16.70;99.90;;;;;;5100590;28;20046;-89
2023/10/09 07:48:00;;;;;;;23.50;14.68;;;16.80;99.90;;;;;;5097641;28;20044;-89
2023/10/09 07:50:47;;;;;;;20.65;14.23;;;16.80;99.90;;;;;;5074627;28;20549;-89
2023/10/09 07:53:26;;;;;;;21.73;13.90;;;16.80;99.90;;;;;;5076213;28;20040;-89
2023/10/09 07:55:58;;;;;;;15.77;6.50;;;16.80;99.90;;;;;;5077564;28;20104;-89
2023/10/09 07:58:25;;;;;;;20.77;13.82;;;16.80;99.90;;;;;;5096917;28;20181;-89
2023/10/09 08:03:24;;;;;;;25.60;13.43;;;16.80;99.90;;;;;;5096217;28;20044;-88
2023/10/09 08:05:52;;;;;;;22.42;13.52;;;16.90;99.90;;;;;;5104848;28;20050;-89
2023/10/09 08:13:49;;;;;;;22.20;12.52;;;16.90;99.90;;;;;;5101839;28;20035;-89
2023/10/09 08:16:21;;;;;;;22.73;13.45;;;17.00;99.90;;;;;;5087845;28;20387;-89
2023/10/09 08:18:50;;;;;;;18.30;8.13;;;17.00;99.90;;;;;;5088079;27;20031;-88
2023/10/09 08:23:48;;;;;;;21.80;13.75;;;17.00;99.90;;;;;;5105757;27;20040;-89
2023/10/09 08:26:28;;;;;;;19.67;12.10;;;17.10;99.90;;;;;;5091387;27;20103;-88
2023/10/09 08:29:15;;;;;;;17.40;7.38;;;17.10;99.90;;;;;;5123967;27;20039;-89
2023/10/09 08:31:46;;;;;;;15.70;7.65;;;17.10;99.90;;;;;;5108307;27;20434;-89
2023/10/09 08:34:24;;;;;;;20.80;13.25;;;17.10;99.90;;;;;;5123912;27;20043;-88
2023/10/09 08:36:54;;;;;;;19.75;12.80;;;17.10;99.90;;;;;;5103258;28;20043;-88
2023/10/09 08:39:27;;;;;;;24.33;8.48;;;17.20;99.90;;;;;;5085624;28;20079;-88
2023/10/09 08:41:57;;;;;;;22.38;13.38;;;17.20;99.90;;;;;;5099159;28;20043;-88
2023/10/09 08:44:31;;;;;;;19.85;12.77;;;17.20;99.90;;;;;;5082366;28;20396;-89
2023/10/09 08:46:57;;;;;;;16.35;7.68;;;17.30;99.90;;;;;;5104566;28;20039;-89
2023/10/09 08:49:25;;;;;;;19.65;12.20;;;17.30;99.90;;;;;;5104594;28;20035;-88
2023/10/09 08:51:52;;;;;;;23.40;12.68;;;17.30;99.90;;;;;;5104253;28;20047;-88
2023/10/09 08:54:18;;;;;;;21.83;12.63;;;17.30;99.90;;;;;;5104533;27;20051;-89
2023/10/09 08:56:51;;;;;;;20.30;12.50;;;17.40;99.90;;;;;;5087132;28;20055;-89
2023/10/09 08:59:18;;;;;;;23.00;12.75;;;17.40;99.90;;;;;;5085885;27;20027;-89
2023/10/09 09:01:58;;;;;;;19.95;12.35;;;17.40;99.90;;;;;;5104821;27;20046;-89
2023/10/09 09:04:38;;;;;;;15.35;7.30;;;17.50;99.90;;;;;;5103338;27;20046;-89
2023/10/09 09:07:23;;;;;;;21.65;12.13;;;17.40;99.90;;;;;;5087508;27;20059;-89
2023/10/09 09:10:17;;;;;;;18.15;10.90;;;17.40;99.90;;;;;;5105371;27;20040;-89
2023/10/09 09:12:43;;;;;;;21.17;11.35;;;17.40;99.90;;;;;;5104617;27;20122;-88
2023/10/09 09:15:19;;;;;;;20.95;11.32;;;17.50;99.90;;;;;;5106695;27;20027;-88
2023/10/09 09:17:46;;;;;;;14.05;6.40;;;17.50;99.90;;;;;;5103664;27;20035;-88
2023/10/09 09:20:44;;;;;;;20.92;10.77;;;17.50;99.90;;;;;;5088697;27;20076;-89
2023/10/09 09:23:12;;;;;;;20.75;11.38;;;17.50;99.90;;;;;;5104361;27;20043;-88
2023/10/09 09:25:48;;;;;;;15.13;6.43;;;17.50;99.90;;;;;;5084260;28;20081;-88
2023/10/09 09:28:19;;;;;;;23.15;12.00;;;17.50;99.90;;;;;;5094977;28;20372;-88
2023/10/09 09:30:50;;;;;;;20.52;11.20;;;17.50;99.90;;;;;;5094989;28;20040;-88
2023/10/09 09:34:04;;;;;;;16.90;6.80;;;17.50;99.90;;;;;;5078377;28;20043;-88
2023/10/09 09:36:12;;;;;;;22.20;10.95;;;17.50;99.90;;;;;;5089688;27;20039;-88
2023/10/09 09:38:50;;;;;;;24.17;11.48;;;17.50;99.90;;;;;;5102151;27;20031;-88
2023/10/09 09:41:24;;;;;;;15.38;6.40;;;17.50;99.90;;;;;;5104224;27;20035;-88
2023/10/09 09:44:01;;;;;;;19.33;8.10;;;17.40;99.90;;;;;;5103273;27;20469;-88
2023/10/09 09:46:33;;;;;;;22.23;10.93;;;17.30;99.90;;;;;;5085211;27;20071;-89
2023/10/09 09:49:05;;;;;;;22.52;11.57;;;17.40;99.90;;;;;;5102838;27;20038;-88
2023/10/09 09:51:31;;;;;;;18.55;11.18;;;17.40;99.90;;;;;;5086394;27;20031;-88
2023/10/09 09:53:57;;;;;;;22.83;11.68;;;17.40;99.90;;;;;;5103523;27;20517;-89
2023/10/09 09:56:28;;;;;;;21.40;8.13;;;17.40;99.90;;;;;;5087123;27;20050;-88
2023/10/09 09:58:53;;;;;;;23.75;12.15;;;17.40;99.90;;;;;;5102902;27;20110;-89
2023/10/09 10:01:24;;;;;;;19.50;11.45;;;17.40;99.90;;;;;;5104811;27;20460;-89
2023/10/09 10:04:04;;;;;;;15.65;6.50;;;17.40;99.90;;;;;;5085915;27;20486;-89
2023/10/09 10:06:32;;;;;;;23.50;12.15;;;17.40;99.90;;;;;;5084964;27;20043;-89
2023/10/09 10:08:58;;;;;;;23.98;12.23;;;17.40;99.90;;;;;;5085876;27;20039;-89
2023/10/09 10:11:51;;;;;;;15.23;7.75;;;17.50;99.90;;;;;;5084661;28;20039;-89
2023/10/09 10:14:31;;;;;;;16.45;7.53;;;17.50;99.90;;;;;;5088481;28;20135;-89
2023/10/09 10:17:21;;;;;;;20.00;11.80;;;17.50;99.90;;;;;;5103765;27;20035;-89
2023/10/09 10:22:48;;;;;;;22.33;11.25;;;17.60;99.90;;;;;;5090858;28;20119;-89
2023/10/09 10:25:32;;;;;;;21.75;12.00;;;17.60;99.90;;;;;;5095417;28;20097;-89
2023/10/09 10:28:38;;;;;;;17.90;6.53;;;17.80;99.90;;;;;;5078722;28;20075;-89
2023/10/09 10:31:11;;;;;;;23.10;12.15;;;17.80;99.90;;;;;;5077294;28;20043;-88
2023/10/09 10:33:53;;;;;;;21.83;11.80;;;17.90;99.90;;;;;;5085684;28;20051;-88
2023/10/09 10:36:22;;;;;;;22.90;11.95;;;18.00;99.90;;;;;;5094513;28;20043;-89
2023/10/09 10:39:21;;;;;;;20.88;10.93;;;18.10;99.90;;;;;;5076859;28;20041;-88
2023/10/09 10:41:57;;;;;;;18.50;6.55;;;18.20;99.90;;;;;;5101576;28;20047;-89
2023/10/09 10:47:03;;;;;;;20.50;10.93;;;18.30;99.90;;;;;;5102865;28;20048;-89
2023/10/09 10:49:40;;;;;;;19.23;10.38;;;18.40;99.90;;;;;;5077064;28;20039;-89
2023/10/09 10:52:16;;;;;;;19.08;9.30;;;18.40;99.90;;;;;;5085600;28;20044;-89
2023/10/09 10:57:30;;;;;;;19.55;9.90;;;18.30;99.90;;;;;;5103184;28;20569;-89
2023/10/09 11:00:13;;;;;;;19.33;10.30;;;18.40;99.90;;;;;;5086170;28;20036;-89
2023/10/09 11:02:44;;;;;;;19.65;10.07;;;18.30;99.90;;;;;;5092320;28;20057;-89
2023/10/09 11:05:24;;;;;;;18.77;9.90;;;18.30;99.90;;;;;;5079937;28;20078;-89
2023/10/09 11:07:56;;;;;;;21.10;9.30;;;18.30;99.90;;;;;;5087350;28;20041;-90
2023/10/09 11:10:31;;;;;;;15.60;6.33;;;18.30;99.90;;;;;;5104573;28;20523;-89
2023/10/09 11:15:46;;;;;;;18.52;8.70;;;18.30;99.90;;;;;;5103272;28;20043;-89
2023/10/09 11:18:22;;;;;;;17.65;9.52;;;18.30;99.90;;;;;;5104953;28;20084;-87
2023/10/09 11:20:56;;;;;;;19.48;8.85;;;18.30;99.90;;;;;;5122488;28;20047;-87
2023/10/09 11:28:56;;;;;;;21.05;9.10;;;18.40;99.90;;;;;;5101894;28;20047;-89
2023/10/09 11:31:22;;;;;;;18.95;8.38;;;18.40;99.90;;;;;;5123845;27;20084;-89
2023/10/09 11:33:53;;;;;;;19.05;8.98;;;18.50;99.90;;;;;;5091053;27;20553;-90
2023/10/09 11:36:34;;;;;;;18.80;9.52;;;18.50;99.90;;;;;;5107115;27;20023;-90
2023/10/09 11:39:31;;;;;;;18.35;8.50;;;18.50;99.90;;;;;;5106308;27;20108;-89
2023/10/09 11:42:14;;;;;;;17.42;8.00;;;18.60;99.90;;;;;;5091507;27;20035;-89
2023/10/09 11:44:45;;;;;;;14.80;5.97;;;18.60;99.90;;;;;;5105393;27;20081;-89
2023/10/09 11:47:23;;;;;;;16.15;7.53;;;18.60;99.90;;;;;;5108154;27;20125;-89
2023/10/09 11:52:35;;;;;;;15.57;7.68;;;18.70;99.90;;;;;;5107127;27;20285;-89
2023/10/09 11:55:14;;;;;;;18.83;6.85;;;18.80;99.90;;;;;;5107820;27;20042;-90
2023/10/09 11:57:40;;;;;;;19.65;7.85;;;18.80;99.90;;;;;;5088574;28;20050;-89
2023/10/09 12:00:29;;;;;;;15.15;7.70;;;18.90;99.90;;;;;;5096598;28;20423;-89
2023/10/09 12:02:55;;;;;;;16.95;7.78;;;18.90;99.90;;;;;;5079969;28;20048;-89
2023/10/09 12:05:22;;;;;;;16.48;8.20;;;18.90;99.90;;;;;;5104818;28;20035;-89
2023/10/09 12:07:54;;;;;;;17.45;7.68;;;18.90;99.90;;;;;;5079213;28;20043;-89
2023/10/09 12:10:25;;;;;;;12.75;6.45;;;18.90;99.90;;;;;;5083878;28;20031;-90
2023/10/09 12:12:58;;;;;;;15.98;7.40;;;18.90;99.90;;;;;;5101552;28;20039;-89
2023/10/09 12:15:24;;;;;;;15.95;6.78;;;18.90;99.90;;;;;;5095448;28;20042;-89
2023/10/09 12:17:53;;;;;;;14.55;4.75;;;18.90;99.90;;;;;;5079186;28;20034;-90
2023/10/09 12:20:32;;;;;;;14.65;7.68;;;18.80;99.90;;;;;;5098132;27;20502;-89
2023/10/09 12:23:04;;;;;;;12.98;6.13;;;18.80;99.90;;;;;;5097709;28;20040;-89
2023/10/09 12:25:32;;;;;;;14.02;6.55;;;18.90;99.90;;;;;;5090136;27;20070;-89
2023/10/09 12:28:01;;;;;;;14.90;5.32;;;18.90;99.90;;;;;;5092358;27;20440;-89
2023/10/09 12:30:27;;;;;;;14.40;6.00;;;18.90;99.90;;;;;;5089387;27;20043;-89
2023/10/09 12:32:54;;;;;;;12.90;5.15;;;18.90;99.90;;;;;;5108883;27;20041;-89
2023/10/09 12:35:21;;;;;;;12.00;5.25;;;18.90;99.90;;;;;;5108191;28;20092;-90
2023/10/09 12:37:47;;;;;;;15.02;5.43;;;18.90;99.90;;;;;;5084935;28;20418;-89
2023/10/09 12:40:13;;;;;;;11.73;5.05;;;18.90;99.90;;;;;;5078989;28;20039;-89
2023/10/09 12:42:40;;;;;;;11.63;5.20;;;18.90;99.90;;;;;;5078388;28;20036;-89
2023/10/09 12:45:09;;;;;;;12.02;4.40;;;18.90;99.90;;;;;;5087475;28;20530;-90
2023/10/09 12:47:37;;;;;;;9.85;2.65;;;19.00;99.90;;;;;;5083774;28;20075;-89
2023/10/09 12:50:13;;;;;;;14.15;4.82;;;19.00;99.90;;;;;;5103918;28;20084;-89
2023/10/09 12:52:39;;;;;;;12.88;5.15;;;19.10;99.90;;;;;;5083114;28;20047;-90
2023/10/09 12:55:08;;;;;;;13.80;5.10;;;19.10;99.90;;;;;;5078815;28;20035;-90
2023/10/09 12:57:34;;;;;;;15.60;5.13;;;19.20;99.90;;;;;;5087161;28;20035;-90
2023/10/09 13:00:00;;;;;;;12.10;4.72;;;19.30;99.90;;;;;;5095776;28;20058;-89
2023/10/09 13:02:28;;;;;;;12.55;4.93;;;19.40;99.90;;;;;;5081188;27;20049;-89
2023/10/09 13:04:59;;;;;;;14.40;4.93;;;19.50;99.90;;;;;;5106172;27;20109;-90
2023/10/09 13:07:25;;;;;;;11.48;4.50;;;19.60;99.90;;;;;;5106429;27;20061;-90
2023/10/09 13:10:09;;;;;;;12.40;4.68;;;19.60;99.90;;;;;;5090098;27;20413;-89
2023/10/09 13:12:41;;;;;;;12.55;4.50;;;19.70;99.90;;;;;;5105901;27;20031;-89
2023/10/09 13:15:09;;;;;;;12.00;4.47;;;19.70;99.90;;;;;;5091041;27;20075;-89
2023/10/09 13:17:36;;;;;;;14.38;5.38;;;19.80;99.90;;;;;;5104828;27;20031;-90
2023/10/09 13:20:12;;;;;;;10.90;4.30;;;19.90;99.90;;;;;;5083943;27;20040;-90
2023/10/09 13:22:42;;;;;;;12.65;5.00;;;19.90;99.90;;;;;;5090405;27;20043;-90
2023/10/09 13:25:17;;;;;;;12.77;4.78;;;19.90;99.90;;;;;;5113228;27;20042;-90
2023/10/09 13:27:50;;;;;;;11.93;4.68;;;20.00;99.90;;;;;;5113536;27;20038;-89
2023/10/09 13:30:21;;;;;;;10.82;4.10;;;20.00;99.90;;;;;;5089279;27;20023;-90
2023/10/09 13:32:49;;;;;;;10.73;3.90;;;20.00;99.90;;;;;;5088710;27;20040;-91
2023/10/09 13:35:19;;;;;;;9.95;3.88;;;20.00;99.90;;;;;;5106534;27;20043;-90
2023/10/09 13:37:53;;;;;;;10.52;3.95;;;19.90;99.90;;;;;;5105003;27;20027;-90
2023/10/09 13:40:26;;;;;;;11.07;3.90;;;19.90;99.90;;;;;;5085346;27;20039;-90
2023/10/09 13:42:58;;;;;;;10.68;3.45;;;19.90;99.90;;;;;;5088074;27;20039;-89
2023/10/09 13:45:27;;;;;;;12.88;3.78;;;19.90;99.90;;;;;;5105269;27;20049;-89
2023/10/09 13:47:54;;;;;;;10.70;3.55;;;19.80;99.90;;;;;;5077959;28;20039;-89
2023/10/09 13:50:23;;;;;;;9.95;3.70;;;19.80;99.90;;;;;;5077823;28;20440;-89
2023/10/09 13:52:48;;;;;;;12.13;4.18;;;19.80;99.90;;;;;;5094121;28;20047;-89
2023/10/09 13:55:15;;;;;;;10.05;4.10;;;19.80;99.90;;;;;;5094614;28;20035;-90
2023/10/09 13:57:45;;;;;;;10.82;3.78;;;19.80;99.90;;;;;;5077809;28;20048;-89
2023/10/09 14:00:32;;;;;;;10.05;3.80;;;19.90;99.90;;;;;;5077942;28;20036;-90
2023/10/09 14:03:01;;;;;;;10.48;3.58;;;19.90;99.90;;;;;;5079497;28;20043;-90
2023/10/09 14:05:27;;;;;;;10.68;3.30;;;19.90;99.90;;;;;;5077618;28;20135;-90
2023/10/09 14:07:59;;;;;;;10.35;4.00;;;19.90;99.90;;;;;;5094647;28;20054;-90
2023/10/09 14:10:30;;;;;;;10.90;3.30;;;19.90;99.90;;;;;;5094278;28;20047;-90
2023/10/09 14:12:56;;;;;;;12.18;4.00;;;19.90;99.90;;;;;;5095030;28;20086;-90
2023/10/09 14:15:23;;;;;;;10.90;3.35;;;20.10;99.90;;;;;;5077805;28;20105;-90
2023/10/09 14:17:55;;;;;;;10.95;4.00;;;20.20;99.90;;;;;;5077627;28;20035;-90
2023/10/09 14:20:31;;;;;;;8.77;2.90;;;20.40;99.90;;;;;;5094199;28;20511;-90
2023/10/09 14:23:06;;;;;;;10.85;3.63;;;20.40;99.90;;;;;;5084690;28;20052;-89
2023/10/09 14:25:39;;;;;;;10.65;3.65;;;20.30;99.90;;;;;;5094268;28;20048;-90
2023/10/09 14:28:09;;;;;;;10.32;2.85;;;20.20;99.90;;;;;;5077157;28;20418;-90
2023/10/09 14:30:41;;;;;;;11.95;3.65;;;20.20;99.90;;;;;;5098034;28;20118;-90
2023/10/09 14:33:13;;;;;;;11.40;3.33;;;20.10;99.90;;;;;;5094449;28;20052;-90
2023/10/09 14:35:44;;;;;;;10.60;3.30;;;20.10;99.90;;;;;;5097144;28;20020;-90
2023/10/09 14:38:15;;;;;;;10.20;3.20;;;20.00;99.90;;;;;;5084383;28;20089;-90
2023/10/09 14:40:42;;;;;;;9.63;2.97;;;19.90;99.90;;;;;;5091700;28;20553;-89
2023/10/09 14:43:16;;;;;;;10.98;3.03;;;19.90;99.90;;;;;;5095427;28;20050;-90
2023/10/09 14:45:42;;;;;;;10.30;2.85;;;19.90;99.90;;;;;;5078726;28;20042;-89
2023/10/09 14:48:10;;;;;;;10.07;3.20;;;19.80;99.90;;;;;;5086362;28;20116;-89
2023/10/09 14:50:38;;;;;;;10.07;3.00;;;19.70;99.90;;;;;;5081430;28;20053;-89
2023/10/09 14:53:04;;;;;;;8.95;2.95;;;19.70;99.90;;;;;;5102928;28;20072;-89
2023/10/09 14:55:31;;;;;;;11.98;3.10;;;19.60;99.90;;;;;;5102832;28;20074;-90
2023/10/09 14:57:58;;;;;;;10.65;3.50;;;19.60;99.90;;;;;;5100615;28;20039;-90
2023/10/09 15:00:24;;;;;;;11.52;3.65;;;19.60;99.90;;;;;;5085075;28;20063;-90
2023/10/09 15:02:53;;;;;;;10.05;3.20;;;19.50;99.90;;;;;;5099934;28;20181;-90
2023/10/09 15:05:18;;;;;;;8.60;2.95;;;19.40;99.90;;;;;;5096155;28;20048;-89
2023/10/09 15:07:45;;;;;;;12.07;3.05;;;19.50;99.90;;;;;;5081041;28;20043;-89
2023/10/09 15:10:15;;;;;;;12.50;3.90;;;19.40;99.90;;;;;;5097866;28;20044;-89
2023/10/09 15:12:42;;;;;;;9.73;3.05;;;19.40;99.90;;;;;;5085602;28;20123;-89
2023/10/09 15:15:13;;;;;;;11.25;3.50;;;19.40;99.90;;;;;;5097798;28;20043;-89
2023/10/09 15:17:43;;;;;;;9.40;3.05;;;19.30;99.90;;;;;;5101724;28;20047;-90
2023/10/09 15:20:13;;;;;;;10.48;3.20;;;19.20;99.90;;;;;;5080862;28;20072;-90
2023/10/09 15:22:40;;;;;;;9.77;3.15;;;19.20;99.90;;;;;;5097810;28;20036;-90
2023/10/09 15:25:06;;;;;;;9.93;3.30;;;19.20;99.90;;;;;;5079723;28;20048;-89
2023/10/09 15:27:32;;;;;;;9.15;2.88;;;19.10;99.90;;;;;;5080279;28;20070;-90
2023/10/09 15:29:57;;;;;;;11.73;3.20;;;19.10;99.90;;;;;;5080013;28;20510;-90
2023/10/09 15:32:24;;;;;;;10.63;3.67;;;19.10;99.90;;;;;;5080038;28;20116;-90
2023/10/09 15:34:57;;;;;;;11.57;3.83;;;19.10;99.90;;;;;;5080449;28;20031;-90
2023/10/09 15:37:23;;;;;;;11.82;3.13;;;19.10;99.90;;;;;;5080346;28;20085;-89
2023/10/09 15:39:49;;;;;;;10.75;3.47;;;19.00;99.90;;;;;;5096822;28;20448;-89